Hayward, WI (54843)

11:23 PM CST on January 27, 2015 (GMT -0600)
Malar Beach | Change Station
CLOSE
Current Station
Personal Weather Station
Location: Hayward, WI
Elevation: 1273 ft
Nearby Weather Stations

Elev 1273 ft 45.93 °N, 91.40 °W | Updated 55 seconds ago

Overcast
Overcast
26.1 °F
Feels Like 26 °F
N
2.0
Wind Variable Wind from SE
Gusts 3.0 mph

Today
High -- | Low -- °F
--% Chance of Precip.
Yesterday
High -- | Low -- °F
Precip. -- in
7:33 AM 5:03 PM
First Quarter, 61% visible
Pressure 30.20 in
Visibility 10.0 miles
Clouds Overcast 7500 ft
Windchill 26 °F
Dew Point 19 °F
Humidity 75%
Rainfall 0.00 in
Snow Depth Not available.
UV 0 out of 12
Pollen .10 out of 12
Air Quality Not available.
Flu Activity Not available.
METAR KHYR 280453Z AUTO 16005KT 10SM OVC075 M03/M07 A3014 RMK AO2 SLP226 T10331067

More Conditions Fewer Conditions

Pressure 30.20 in
Visibility 10.0 miles
Clouds Overcast 7500 ft
Windchill 26 °F
Dew Point 19 °F
Humidity 75%
Rainfall 0.00 in
Snow Depth Not available.
UV 0 out of 12
Pollen .10 out of 12
Air Quality Not available.
Flu Activity Not available.
METAR KHYR 280453Z AUTO 16005KT 10SM OVC075 M03/M07 A3014 RMK AO2 SLP226 T10331067

More Conditions Fewer Conditions

10-Day Weather Forecast

Almanac

Astronomy

Jan. 27, 2015 Rise Set
Actual Time
Civil Twilight
Nautical Twilight
Astronomical Twilight
Moon
Length of Visible Light
Length of Day
Tomorrow will be .
, % of the Moon is Illuminated

Today's Extremes

State Highs State Lows

Community

WunderPhotos

Upload Photos

1,791,103 photos uploaded!

WunderBlogs® & News

Nearby

Air Quality

  Air Quality AQ Index Pollutant
Not available.

Snow Depth

Station Depth Elevation

Earthquake Activity

City Distance Mag. Time & Date
Minimum magnitude displayed is 2.5.

Coastal Water Temperatures

Place Temperature

Nearby Weather Stations